Time;durP1;ratioP1;P1;durP2;ratioP2;P2;SDS_P1;SDS_P2;PMS_P1;PMS_P2;Temp;Humidity;BMP_temperature;BMP_pressure;BME280_temperature;BME280_humidity;BME280_pressure;Samples;Min_cycle;Max_cycle;Signal;HPM_P1;HPM_P2
2023/07/04 00:01:15;;;;;;;10.48;2.00;;;13.00;99.90;;;;;;5071258;28;20101;-66
2023/07/04 00:03:43;;;;;;;6.63;2.10;;;12.80;99.90;;;;;;5071424;28;20543;-66
2023/07/04 00:06:12;;;;;;;7.50;2.28;;;12.90;99.90;;;;;;5071775;28;20102;-66
2023/07/04 00:08:39;;;;;;;8.40;1.70;;;13.00;99.90;;;;;;5071208;28;20407;-66
2023/07/04 00:11:06;;;;;;;8.50;1.60;;;12.90;99.90;;;;;;5070320;28;20082;-66
2023/07/04 00:13:33;;;;;;;9.52;1.75;;;12.90;99.90;;;;;;5071620;28;20036;-66
2023/07/04 00:16:00;;;;;;;4.90;1.80;;;12.80;99.90;;;;;;5069604;28;20072;-66
2023/07/04 00:18:28;;;;;;;6.22;1.95;;;12.80;99.90;;;;;;5070699;28;20098;-66
2023/07/04 00:20:56;;;;;;;3.55;1.70;;;12.90;99.90;;;;;;5071343;28;20116;-67
2023/07/04 00:23:27;;;;;;;9.85;1.90;;;12.70;99.90;;;;;;5071641;28;20036;-66
2023/07/04 00:25:53;;;;;;;8.43;1.65;;;12.70;99.90;;;;;;5071182;28;20488;-66
2023/07/04 00:28:21;;;;;;;7.28;1.52;;;12.90;99.90;;;;;;5070836;28;20089;-66
2023/07/04 00:30:52;;;;;;;5.55;2.00;;;12.70;99.90;;;;;;5071120;28;20045;-66
2023/07/04 00:33:25;;;;;;;9.90;3.05;;;12.70;99.90;;;;;;5071505;28;20044;-66
2023/07/04 00:35:59;;;;;;;8.35;1.67;;;12.80;99.90;;;;;;5059248;28;20036;-67
2023/07/04 00:38:25;;;;;;;5.88;1.60;;;12.60;99.90;;;;;;5061035;28;20101;-67
2023/07/04 00:40:51;;;;;;;5.03;1.30;;;12.70;99.90;;;;;;5070959;28;20036;-66
2023/07/04 00:43:16;;;;;;;9.55;1.42;;;12.80;99.90;;;;;;5071176;28;20051;-66
2023/07/04 00:45:43;;;;;;;5.38;1.42;;;12.60;99.90;;;;;;5071583;28;20043;-66
2023/07/04 00:48:12;;;;;;;7.57;1.77;;;12.60;99.90;;;;;;5070870;28;20404;-66
2023/07/04 00:50:43;;;;;;;5.88;1.20;;;12.70;99.90;;;;;;5063162;28;20045;-66
2023/07/04 00:53:12;;;;;;;7.57;1.63;;;12.70;99.90;;;;;;5071052;28;20098;-66
2023/07/04 00:55:41;;;;;;;5.68;2.22;;;12.70;99.90;;;;;;5071106;28;20036;-66
2023/07/04 00:58:07;;;;;;;5.75;1.52;;;12.60;99.90;;;;;;5070660;28;20037;-66
2023/07/04 01:00:36;;;;;;;6.82;1.85;;;12.60;99.90;;;;;;5070780;28;20090;-66
2023/07/04 01:03:06;;;;;;;5.85;1.83;;;12.60;99.90;;;;;;5070516;28;20459;-66
2023/07/04 01:05:44;;;;;;;9.43;1.63;;;12.70;99.90;;;;;;5071172;28;20052;-66
2023/07/04 01:08:20;;;;;;;4.65;1.60;;;12.60;99.90;;;;;;5070441;28;20037;-66
2023/07/04 01:10:47;;;;;;;3.47;1.70;;;12.50;99.90;;;;;;5070963;28;20119;-66
2023/07/04 01:13:34;;;;;;;5.47;1.38;;;12.70;99.90;;;;;;5071209;28;20032;-66
2023/07/04 01:16:02;;;;;;;6.05;1.83;;;12.60;99.90;;;;;;5071348;28;20122;-67
2023/07/04 01:18:28;;;;;;;12.90;2.25;;;12.60;99.90;;;;;;5070505;28;20053;-66
2023/07/04 01:20:54;;;;;;;3.88;1.30;;;12.50;99.90;;;;;;5070387;28;20123;-67
2023/07/04 01:23:27;;;;;;;5.30;1.73;;;12.50;99.90;;;;;;5070860;28;20050;-66
2023/07/04 01:26:13;;;;;;;9.07;1.70;;;12.50;99.90;;;;;;5071016;28;20041;-67
2023/07/04 01:28:41;;;;;;;11.63;1.75;;;12.60;99.90;;;;;;5094031;22;20214;-68
2023/07/04 01:31:07;;;;;;;8.93;1.70;;;12.60;99.90;;;;;;5053011;28;20044;-71
2023/07/04 01:33:33;;;;;;;6.55;2.10;;;12.40;99.90;;;;;;5070790;28;20056;-71
2023/07/04 01:35:59;;;;;;;5.95;1.50;;;12.40;99.90;;;;;;5052799;28;20040;-71
2023/07/04 01:38:24;;;;;;;9.80;1.85;;;12.60;99.90;;;;;;5073324;28;20101;-71
2023/07/04 01:40:50;;;;;;;6.47;1.63;;;12.60;99.90;;;;;;5074373;28;20427;-71
2023/07/04 01:43:16;;;;;;;4.05;1.38;;;12.60;99.90;;;;;;5074424;28;20037;-71
2023/07/04 01:45:45;;;;;;;5.07;1.55;;;12.60;99.90;;;;;;5074403;28;20040;-70
2023/07/04 01:48:10;;;;;;;3.22;1.40;;;12.60;99.90;;;;;;5073556;28;20125;-71
2023/07/04 01:50:36;;;;;;;9.68;1.75;;;12.50;99.90;;;;;;5073852;28;20492;-71
2023/07/04 01:53:02;;;;;;;5.35;1.83;;;12.50;99.90;;;;;;5074401;28;20116;-70
2023/07/04 01:55:27;;;;;;;4.57;1.58;;;12.60;99.90;;;;;;5074230;28;20496;-70
2023/07/04 01:57:53;;;;;;;4.82;1.77;;;12.50;99.90;;;;;;5064077;28;20416;-71
2023/07/04 02:00:21;;;;;;;12.82;2.50;;;12.70;99.90;;;;;;5073695;28;20040;-71
2023/07/04 02:02:46;;;;;;;6.53;2.08;;;12.70;99.90;;;;;;5073986;28;20040;-70
2023/07/04 02:05:12;;;;;;;3.22;1.33;;;12.50;99.90;;;;;;5074184;28;20523;-70
2023/07/04 02:07:37;;;;;;;3.97;1.38;;;12.70;99.90;;;;;;5073715;28;20484;-70
2023/07/04 02:10:03;;;;;;;5.78;1.90;;;12.60;99.90;;;;;;5073621;28;20504;-70
2023/07/04 02:12:29;;;;;;;6.15;1.85;;;12.80;99.90;;;;;;5073967;28;20043;-70
2023/07/04 02:14:54;;;;;;;5.18;1.58;;;12.60;99.90;;;;;;5073840;28;20032;-70
2023/07/04 02:17:20;;;;;;;2.72;1.65;;;12.60;99.90;;;;;;5073320;28;20115;-70
2023/07/04 02:19:46;;;;;;;7.63;1.60;;;12.60;99.90;;;;;;5073830;28;20039;-70
2023/07/04 02:22:12;;;;;;;6.00;2.60;;;12.50;99.90;;;;;;5073272;28;20040;-70
2023/07/04 02:24:37;;;;;;;5.97;1.67;;;12.50;99.90;;;;;;5073799;28;20068;-70
2023/07/04 02:27:03;;;;;;;3.40;1.40;;;12.40;99.90;;;;;;5073234;28;20047;-70
2023/07/04 02:29:29;;;;;;;11.55;1.67;;;12.50;99.90;;;;;;5073587;28;20039;-70
2023/07/04 02:31:54;;;;;;;5.65;1.80;;;12.50;99.90;;;;;;5073081;28;20036;-70
2023/07/04 02:34:20;;;;;;;6.88;1.60;;;12.50;99.90;;;;;;5073359;28;20137;-70
2023/07/04 02:36:45;;;;;;;2.85;1.40;;;12.50;99.90;;;;;;5073646;28;20044;-70
2023/07/04 02:39:11;;;;;;;9.82;2.13;;;12.30;99.90;;;;;;5073057;28;20094;-70
2023/07/04 02:41:36;;;;;;;3.50;1.25;;;12.50;99.90;;;;;;5073024;28;20040;-71
2023/07/04 02:44:02;;;;;;;6.95;1.70;;;12.40;99.90;;;;;;5073310;28;20599;-71
2023/07/04 02:46:27;;;;;;;6.78;1.58;;;12.50;99.90;;;;;;5072076;28;20408;-70
2023/07/04 02:48:53;;;;;;;3.05;1.42;;;12.40;99.90;;;;;;5072829;28;20075;-70
2023/07/04 02:51:19;;;;;;;4.28;1.85;;;12.30;99.90;;;;;;5072898;28;20036;-70
2023/07/04 02:53:44;;;;;;;7.20;2.25;;;12.40;99.90;;;;;;5073147;28;20108;-70
2023/07/04 02:56:11;;;;;;;7.43;2.17;;;12.50;99.90;;;;;;5073087;28;20047;-70
2023/07/04 02:58:37;;;;;;;8.10;2.53;;;12.40;99.90;;;;;;5071462;28;20063;-71
2023/07/04 03:01:04;;;;;;;6.50;2.83;;;12.60;99.90;;;;;;5072463;28;20526;-70
2023/07/04 03:03:30;;;;;;;9.90;3.90;;;12.60;99.90;;;;;;5073032;28;20048;-71
2023/07/04 03:05:56;;;;;;;9.40;3.50;;;12.50;99.90;;;;;;5072908;28;20085;-70
2023/07/04 03:08:22;;;;;;;13.63;4.63;;;12.60;99.90;;;;;;5072379;28;20044;-71
2023/07/04 03:10:48;;;;;;;12.13;3.63;;;12.50;99.90;;;;;;5072360;28;20047;-70
2023/07/04 03:13:14;;;;;;;8.00;3.92;;;12.60;99.90;;;;;;5072610;28;20040;-70
2023/07/04 03:15:40;;;;;;;12.77;5.10;;;12.60;99.90;;;;;;5072521;28;20032;-71
2023/07/04 03:18:06;;;;;;;6.88;3.60;;;12.60;99.90;;;;;;5072351;28;20496;-70
2023/07/04 03:20:31;;;;;;;12.25;4.00;;;12.60;99.90;;;;;;5072222;28;20045;-70
2023/07/04 03:22:57;;;;;;;10.68;4.50;;;12.70;99.90;;;;;;5072561;28;20044;-70
2023/07/04 03:25:23;;;;;;;12.75;3.42;;;12.90;99.90;;;;;;5072541;28;20045;-70
2023/07/04 03:27:48;;;;;;;8.50;3.10;;;12.80;99.90;;;;;;5071797;28;20119;-70
2023/07/04 03:30:15;;;;;;;8.88;3.13;;;12.80;99.90;;;;;;5071800;28;20044;-70
2023/07/04 03:32:41;;;;;;;7.72;3.47;;;12.70;99.90;;;;;;5071165;28;20055;-71
2023/07/04 03:35:08;;;;;;;6.82;2.65;;;12.90;99.90;;;;;;5072218;28;20036;-70
2023/07/04 03:37:34;;;;;;;6.95;2.50;;;12.90;99.90;;;;;;5071893;28;20098;-70
2023/07/04 03:40:01;;;;;;;7.30;2.40;;;12.90;99.90;;;;;;5071844;28;20036;-71
2023/07/04 03:42:27;;;;;;;6.70;2.45;;;12.90;99.90;;;;;;5072112;28;20039;-70
2023/07/04 03:44:53;;;;;;;6.22;2.38;;;12.90;99.90;;;;;;5071812;28;20036;-70
2023/07/04 03:47:18;;;;;;;8.00;2.30;;;12.80;99.90;;;;;;5070474;28;20408;-71
2023/07/04 03:49:44;;;;;;;8.05;2.72;;;12.80;99.90;;;;;;5072206;28;20044;-70
2023/07/04 03:52:11;;;;;;;7.22;2.78;;;12.80;99.90;;;;;;5071643;28;20040;-70
2023/07/04 03:54:36;;;;;;;4.35;2.13;;;12.80;99.90;;;;;;5071991;28;20158;-70
2023/07/04 03:57:02;;;;;;;4.63;2.60;;;12.80;99.90;;;;;;5070499;28;20064;-70
2023/07/04 03:59:28;;;;;;;8.45;2.45;;;12.80;99.90;;;;;;5071291;28;20044;-70
2023/07/04 04:01:53;;;;;;;7.43;2.22;;;13.00;99.90;;;;;;5071588;28;20048;-70
2023/07/04 04:04:20;;;;;;;9.07;2.90;;;13.00;99.90;;;;;;5071897;28;20040;-70
2023/07/04 04:06:48;;;;;;;9.40;3.28;;;13.10;99.90;;;;;;5070699;28;20040;-70
2023/07/04 04:09:15;;;;;;;6.88;3.00;;;12.90;99.90;;;;;;5071342;28;20037;-71
2023/07/04 04:11:41;;;;;;;9.45;2.95;;;13.10;99.90;;;;;;5069390;28;20047;-70
2023/07/04 04:14:07;;;;;;;8.27;2.72;;;12.90;99.90;;;;;;5067386;28;20033;-70
2023/07/04 04:16:33;;;;;;;7.03;3.03;;;12.90;99.90;;;;;;5071735;28;20044;-70
2023/07/04 04:18:58;;;;;;;8.10;2.60;;;13.10;99.90;;;;;;5071213;28;20036;-71
2023/07/04 04:21:24;;;;;;;9.52;2.70;;;13.00;99.90;;;;;;5071278;28;20093;-70
2023/07/04 04:23:52;;;;;;;7.57;2.08;;;13.10;99.90;;;;;;5071457;28;20044;-70
2023/07/04 04:26:21;;;;;;;8.90;3.00;;;13.00;99.90;;;;;;5071460;28;20048;-70
2023/07/04 04:28:47;;;;;;;6.10;2.75;;;13.10;99.90;;;;;;5070930;28;20040;-70
2023/07/04 04:31:14;;;;;;;7.43;2.92;;;13.10;99.90;;;;;;5053173;28;20059;-70
2023/07/04 04:33:40;;;;;;;7.15;2.97;;;12.90;99.90;;;;;;5071594;28;20032;-71
2023/07/04 04:36:05;;;;;;;9.90;2.88;;;13.00;99.90;;;;;;5070186;28;20044;-70
2023/07/04 04:38:32;;;;;;;9.45;3.08;;;13.00;99.90;;;;;;5071151;28;20047;-70
2023/07/04 04:41:05;;;;;;;8.15;3.13;;;13.10;99.90;;;;;;5070931;28;20048;-70
2023/07/04 04:43:33;;;;;;;11.38;3.78;;;13.10;99.90;;;;;;5071539;28;20041;-70
2023/07/04 04:46:03;;;;;;;8.68;3.78;;;13.30;99.90;;;;;;5070378;28;20040;-71
2023/07/04 04:48:35;;;;;;;9.80;3.30;;;13.30;99.90;;;;;;5070959;28;20041;-71
2023/07/04 04:51:10;;;;;;;8.53;3.30;;;13.40;99.90;;;;;;5069924;28;20048;-71
2023/07/04 04:53:37;;;;;;;6.93;3.95;;;13.20;99.90;;;;;;5069955;28;20485;-71
2023/07/04 04:56:03;;;;;;;9.05;4.00;;;13.20;99.90;;;;;;5071473;28;20086;-71
2023/07/04 04:58:29;;;;;;;9.35;4.18;;;13.30;99.90;;;;;;5070835;28;20048;-71
2023/07/04 05:00:55;;;;;;;9.55;3.72;;;13.40;99.90;;;;;;5070929;28;20435;-71
2023/07/04 05:03:21;;;;;;;9.10;3.33;;;13.50;99.90;;;;;;5071299;28;20048;-71
2023/07/04 05:05:46;;;;;;;8.60;4.07;;;13.30;99.90;;;;;;5071114;28;20630;-71
2023/07/04 05:08:12;;;;;;;10.35;3.78;;;13.50;99.90;;;;;;5069596;28;20040;-70
2023/07/04 05:10:38;;;;;;;11.63;4.00;;;13.50;99.90;;;;;;5070936;28;20049;-70
2023/07/04 05:13:03;;;;;;;10.48;3.72;;;13.40;99.90;;;;;;5074043;28;20119;-70
2023/07/04 05:15:29;;;;;;;9.13;3.70;;;13.60;99.90;;;;;;5075188;28;20548;-70
2023/07/04 05:17:54;;;;;;;9.07;4.50;;;13.40;99.90;;;;;;5074627;28;20078;-70
2023/07/04 05:20:23;;;;;;;12.18;4.32;;;13.60;99.90;;;;;;5074471;28;20534;-70
2023/07/04 05:22:50;;;;;;;8.93;4.65;;;13.60;99.90;;;;;;5074980;28;20056;-70
2023/07/04 05:25:16;;;;;;;10.82;4.07;;;13.70;99.90;;;;;;5074863;28;20089;-70
2023/07/04 05:27:41;;;;;;;6.03;3.67;;;13.60;99.90;;;;;;5074086;28;20127;-70
2023/07/04 05:30:08;;;;;;;8.10;4.05;;;13.70;99.90;;;;;;5074347;28;20049;-70
2023/07/04 05:32:34;;;;;;;10.27;4.47;;;13.60;99.90;;;;;;5074651;28;20047;-70
2023/07/04 05:35:00;;;;;;;9.00;4.10;;;13.80;99.90;;;;;;5074412;28;20412;-70
2023/07/04 05:37:26;;;;;;;8.88;4.80;;;13.90;99.90;;;;;;5074333;28;20036;-71
2023/07/04 05:39:51;;;;;;;8.00;3.85;;;13.70;99.90;;;;;;5074691;28;20060;-70
2023/07/04 05:42:17;;;;;;;6.00;3.63;;;13.90;99.90;;;;;;5074092;28;20473;-70
2023/07/04 05:44:42;;;;;;;10.43;3.92;;;14.20;99.90;;;;;;5074511;28;20113;-70
2023/07/04 05:47:08;;;;;;;15.80;4.40;;;14.00;99.90;;;;;;5074001;28;20128;-70
2023/07/04 05:49:34;;;;;;;11.00;4.15;;;14.10;99.90;;;;;;5074115;28;20063;-70
2023/07/04 05:51:59;;;;;;;6.82;4.20;;;14.40;99.90;;;;;;5073903;28;20047;-70
2023/07/04 05:54:25;;;;;;;10.15;4.15;;;14.20;99.90;;;;;;5074443;28;20028;-71
2023/07/04 05:56:55;;;;;;;12.07;4.82;;;14.40;99.90;;;;;;5073097;28;20492;-71
2023/07/04 05:59:21;;;;;;;10.23;3.80;;;14.30;99.90;;;;;;5073847;28;20051;-71
2023/07/04 06:01:47;;;;;;;11.50;4.10;;;14.30;99.90;;;;;;5073762;28;20044;-70
2023/07/04 06:04:13;;;;;;;9.35;4.57;;;14.30;99.90;;;;;;5074071;28;20403;-71
2023/07/04 06:06:53;;;;;;;7.50;3.08;;;14.50;99.90;;;;;;5074061;28;20049;-71
2023/07/04 06:09:20;;;;;;;6.05;2.50;;;14.50;99.90;;;;;;5073498;28;20033;-69
2023/07/04 06:11:47;;;;;;;7.05;2.63;;;14.50;99.90;;;;;;5073673;28;20082;-71
2023/07/04 06:14:24;;;;;;;9.20;2.85;;;14.50;99.90;;;;;;5074014;28;20036;-70
2023/07/04 06:16:50;;;;;;;10.82;3.78;;;14.60;99.90;;;;;;5072592;28;20040;-71
2023/07/04 06:19:17;;;;;;;7.03;2.50;;;14.40;99.90;;;;;;5073580;28;20041;-70
2023/07/04 06:21:43;;;;;;;4.53;2.33;;;14.50;99.90;;;;;;5073527;28;20071;-71
2023/07/04 06:24:08;;;;;;;8.35;2.20;;;14.60;99.90;;;;;;5073564;28;20040;-70
2023/07/04 06:26:34;;;;;;;6.20;2.53;;;14.50;99.90;;;;;;5073702;28;20052;-70
2023/07/04 06:29:00;;;;;;;8.02;2.55;;;14.70;99.90;;;;;;5073088;28;20036;-71
2023/07/04 06:31:26;;;;;;;8.90;2.70;;;14.60;99.90;;;;;;5073102;28;20083;-70
2023/07/04 06:33:54;;;;;;;7.72;2.47;;;14.80;99.90;;;;;;5073712;28;20509;-69
2023/07/04 06:36:20;;;;;;;4.78;2.30;;;14.90;99.90;;;;;;5073598;28;20064;-70
2023/07/04 06:38:46;;;;;;;5.03;2.20;;;15.00;99.90;;;;;;5073177;28;20044;-70
2023/07/04 06:41:14;;;;;;;8.68;2.05;;;15.00;99.90;;;;;;5072981;28;20036;-70
2023/07/04 06:43:43;;;;;;;9.93;2.60;;;14.80;99.90;;;;;;5073259;28;20033;-70
2023/07/04 06:46:14;;;;;;;5.28;1.85;;;15.00;99.90;;;;;;5073166;28;20044;-69
2023/07/04 06:48:39;;;;;;;3.55;1.70;;;15.00;99.90;;;;;;5072948;28;20047;-69
2023/07/04 06:51:07;;;;;;;6.18;2.00;;;15.20;99.90;;;;;;5072843;28;20066;-69
2023/07/04 06:53:34;;;;;;;7.50;1.75;;;15.30;99.90;;;;;;5073104;28;20519;-70
2023/07/04 06:56:13;;;;;;;4.85;2.05;;;15.30;99.90;;;;;;5071902;28;20115;-69
2023/07/04 06:58:45;;;;;;;3.15;1.27;;;15.10;99.90;;;;;;5072771;28;20036;-70
2023/07/04 07:01:11;;;;;;;2.33;1.25;;;15.20;99.90;;;;;;5072390;28;20508;-69
2023/07/04 07:03:37;;;;;;;4.32;1.50;;;15.40;99.90;;;;;;5072858;28;20044;-70
2023/07/04 07:06:05;;;;;;;2.83;1.20;;;15.20;99.90;;;;;;5072884;28;20059;-70
2023/07/04 07:08:32;;;;;;;8.35;1.77;;;15.50;99.90;;;;;;5066540;28;20131;-70
2023/07/04 07:11:00;;;;;;;6.72;1.60;;;15.40;99.90;;;;;;5071592;28;20060;-70
2023/07/04 07:13:26;;;;;;;5.47;1.42;;;15.60;99.90;;;;;;5068323;28;20487;-70
2023/07/04 07:16:03;;;;;;;3.28;1.42;;;15.90;99.90;;;;;;5072175;28;20060;-70
2023/07/04 07:18:29;;;;;;;5.00;1.40;;;16.40;99.90;;;;;;5066328;28;20048;-70
2023/07/04 07:20:58;;;;;;;5.72;2.38;;;16.20;99.90;;;;;;5070674;28;20613;-70
2023/07/04 07:23:24;;;;;;;6.75;1.23;;;16.20;99.90;;;;;;5072182;28;20044;-71
2023/07/04 07:25:54;;;;;;;7.20;1.65;;;16.00;99.90;;;;;;5062766;28;20123;-71
2023/07/04 07:28:23;;;;;;;4.90;1.25;;;16.00;99.90;;;;;;5099397;22;20058;-68
2023/07/04 07:30:48;;;;;;;5.22;1.40;;;15.90;99.90;;;;;;5083574;28;20083;-67
2023/07/04 07:33:14;;;;;;;4.95;1.90;;;16.00;99.90;;;;;;5082528;28;20064;-68
2023/07/04 07:35:39;;;;;;;3.40;1.23;;;16.10;99.90;;;;;;5088000;28;20146;-69
2023/07/04 07:38:05;;;;;;;3.65;1.40;;;16.00;99.90;;;;;;5081838;28;20043;-68
2023/07/04 07:40:30;;;;;;;3.47;1.63;;;16.20;99.90;;;;;;5082094;28;20058;-68
2023/07/04 07:42:56;;;;;;;3.53;1.20;;;16.30;99.90;;;;;;5072194;28;20088;-69
2023/07/04 07:45:21;;;;;;;4.38;1.15;;;16.20;99.90;;;;;;5081401;28;20040;-69
2023/07/04 07:47:47;;;;;;;4.65;1.50;;;16.20;99.90;;;;;;5088847;28;20036;-68
2023/07/04 07:50:13;;;;;;;3.88;1.63;;;16.30;99.90;;;;;;5079435;28;20043;-69
2023/07/04 07:52:38;;;;;;;6.28;1.45;;;16.30;99.90;;;;;;5077892;28;20380;-69
2023/07/04 07:55:04;;;;;;;5.15;1.38;;;16.20;99.90;;;;;;5080856;28;20081;-67
2023/07/04 07:57:29;;;;;;;3.83;1.38;;;16.40;99.90;;;;;;5077993;28;20043;-67
2023/07/04 07:59:55;;;;;;;4.18;1.90;;;16.40;99.90;;;;;;5071091;28;20088;-68
2023/07/04 08:02:21;;;;;;;3.75;1.45;;;16.30;99.90;;;;;;5069632;28;20033;-67
2023/07/04 08:04:46;;;;;;;6.25;1.00;;;16.40;99.90;;;;;;5079939;28;20459;-69
2023/07/04 08:07:12;;;;;;;5.63;1.30;;;16.40;99.90;;;;;;5069649;28;20037;-67
2023/07/04 08:09:37;;;;;;;4.05;1.23;;;16.30;99.90;;;;;;5068921;28;20028;-68
2023/07/04 08:12:03;;;;;;;3.42;1.13;;;16.30;99.90;;;;;;5084295;28;20048;-68
2023/07/04 08:14:29;;;;;;;6.15;1.30;;;16.40;99.90;;;;;;5067902;28;20087;-68
2023/07/04 08:16:54;;;;;;;5.05;1.00;;;16.40;99.90;;;;;;5083434;28;20036;-68
2023/07/04 08:19:23;;;;;;;3.78;0.90;;;16.40;99.90;;;;;;5073830;28;20043;-69
2023/07/04 08:21:50;;;;;;;3.03;1.00;;;16.50;99.90;;;;;;5076587;28;20715;-68
2023/07/04 08:24:16;;;;;;;10.57;1.10;;;16.60;99.90;;;;;;5066546;28;20048;-69
2023/07/04 08:26:44;;;;;;;6.30;0.93;;;16.40;99.90;;;;;;5068324;28;20503;-67
2023/07/04 08:29:10;;;;;;;4.97;1.25;;;16.50;99.90;;;;;;5073982;28;20039;-68
2023/07/04 08:31:36;;;;;;;6.97;2.08;;;16.60;99.90;;;;;;5084650;28;20521;-68
2023/07/04 08:34:02;;;;;;;3.78;1.13;;;16.60;99.90;;;;;;5074160;28;20119;-69
2023/07/04 08:36:28;;;;;;;3.10;1.35;;;16.50;99.90;;;;;;5073429;28;20062;-68
2023/07/04 08:38:54;;;;;;;6.28;1.55;;;16.70;99.90;;;;;;5074593;28;20044;-68
2023/07/04 08:41:38;;;;;;;9.50;1.67;;;16.70;99.90;;;;;;5064119;28;20037;-68
2023/07/04 08:44:09;;;;;;;5.45;1.27;;;16.70;99.90;;;;;;5066068;28;20098;-69
2023/07/04 08:46:45;;;;;;;3.17;1.13;;;16.90;99.90;;;;;;5059396;28;20040;-68
2023/07/04 08:49:34;;;;;;;3.83;1.58;;;16.80;99.90;;;;;;5067085;28;20082;-68
2023/07/04 08:52:23;;;;;;;3.13;1.23;;;16.80;99.90;;;;;;5063615;28;20041;-67
2023/07/04 08:54:54;;;;;;;4.82;1.15;;;16.80;99.90;;;;;;5066392;28;20451;-68
2023/07/04 08:57:37;;;;;;;3.10;0.93;;;16.80;99.90;;;;;;5063597;28;20083;-68
2023/07/04 09:00:20;;;;;;;3.15;0.98;;;16.80;99.90;;;;;;5060573;28;20040;-69
2023/07/04 09:03:18;;;;;;;3.47;1.00;;;16.90;99.90;;;;;;5068503;28;20515;-68
2023/07/04 09:05:54;;;;;;;5.30;1.10;;;17.00;99.90;;;;;;5077581;28;20056;-67
2023/07/04 09:08:51;;;;;;;4.88;1.20;;;16.90;99.90;;;;;;5084675;28;20059;-68
2023/07/04 09:11:17;;;;;;;8.35;2.97;;;17.00;99.90;;;;;;5080149;28;20334;-67
2023/07/04 09:13:47;;;;;;;5.15;1.15;;;17.50;99.90;;;;;;5092035;28;20047;-68
2023/07/04 09:16:36;;;;;;;9.20;1.48;;;17.50;99.90;;;;;;5079057;28;20040;-68
2023/07/04 09:19:06;;;;;;;6.75;1.70;;;17.90;99.90;;;;;;5077914;28;20124;-68
2023/07/04 09:21:33;;;;;;;4.13;1.52;;;18.20;99.90;;;;;;5082798;28;20039;-67
2023/07/04 09:24:01;;;;;;;7.47;1.88;;;18.20;99.90;;;;;;5079377;28;20063;-67
2023/07/04 09:26:46;;;;;;;6.00;1.48;;;18.20;99.90;;;;;;5088954;28;20036;-68
2023/07/04 09:29:17;;;;;;;6.97;1.60;;;18.10;99.90;;;;;;5078688;28;20089;-68
2023/07/04 09:31:46;;;;;;;3.72;1.38;;;17.90;99.90;;;;;;5073745;28;20047;-68
2023/07/04 09:34:21;;;;;;;5.80;1.65;;;18.40;99.90;;;;;;5086299;28;20051;-68
2023/07/04 09:36:50;;;;;;;8.57;1.90;;;18.80;99.90;;;;;;5082142;28;20116;-68
2023/07/04 09:39:16;;;;;;;3.58;1.23;;;19.00;99.90;;;;;;5077595;28;20040;-70
2023/07/04 09:41:42;;;;;;;8.15;1.83;;;19.10;99.90;;;;;;5079524;28;20492;-70
2023/07/04 09:44:16;;;;;;;6.80;1.73;;;19.10;99.90;;;;;;5074506;28;20048;-69
2023/07/04 09:46:53;;;;;;;6.95;1.88;;;18.90;99.90;;;;;;5082230;28;20044;-70
2023/07/04 09:49:30;;;;;;;6.32;2.08;;;19.00;99.90;;;;;;5082266;28;20043;-68
2023/07/04 09:52:04;;;;;;;6.95;1.95;;;19.00;99.90;;;;;;5086430;28;20119;-68
2023/07/04 09:54:32;;;;;;;9.77;3.08;;;19.10;99.90;;;;;;5083836;28;20506;-69
2023/07/04 09:57:20;;;;;;;6.97;1.88;;;18.90;99.90;;;;;;5078136;28;20450;-69
2023/07/04 09:59:46;;;;;;;6.97;1.63;;;19.20;99.90;;;;;;5065432;28;20087;-69
2023/07/04 10:02:17;;;;;;;6.15;1.48;;;19.60;99.90;;;;;;5083847;28;20508;-69
2023/07/04 10:04:46;;;;;;;5.25;1.60;;;19.60;99.90;;;;;;5078599;28;20067;-69
2023/07/04 10:07:14;;;;;;;6.15;1.50;;;19.80;99.90;;;;;;5079996;28;20063;-68
2023/07/04 10:09:50;;;;;;;8.05;1.60;;;19.70;99.90;;;;;;5073948;28;20039;-69
2023/07/04 10:12:17;;;;;;;9.68;2.30;;;19.50;99.90;;;;;;5082091;28;20045;-69
2023/07/04 10:14:50;;;;;;;7.72;2.03;;;19.30;99.90;;;;;;5093847;28;20115;-69
2023/07/04 10:17:31;;;;;;;4.97;1.65;;;19.50;99.90;;;;;;5090849;28;20506;-69
2023/07/04 10:20:00;;;;;;;5.25;1.50;;;19.50;99.90;;;;;;5088015;28;20040;-69
2023/07/04 10:22:35;;;;;;;6.47;2.00;;;19.40;99.90;;;;;;5093870;28;20464;-70
2023/07/04 10:25:03;;;;;;;5.95;2.15;;;19.30;99.90;;;;;;5094097;28;20044;-69
2023/07/04 10:27:35;;;;;;;5.95;1.67;;;19.60;99.90;;;;;;5093479;28;20455;-69
2023/07/04 10:30:08;;;;;;;5.13;1.63;;;19.50;99.90;;;;;;5088735;28;20564;-69
2023/07/04 10:32:48;;;;;;;;;;;19.30;99.90;;;;;;5085807;28;20042;-69
2023/07/04 10:35:19;;;;;;;3.33;1.45;;;19.20;99.90;;;;;;5093602;28;20391;-69
2023/07/04 10:37:49;;;;;;;6.97;1.38;;;19.50;99.90;;;;;;5093443;28;20071;-69
2023/07/04 10:40:16;;;;;;;8.07;1.67;;;19.70;99.50;;;;;;5093378;28;20076;-69
2023/07/04 10:42:56;;;;;;;6.07;1.45;;;19.80;99.10;;;;;;5093759;28;20048;-69
2023/07/04 10:45:25;;;;;;;5.45;1.73;;;19.80;98.20;;;;;;5093458;28;20042;-69
2023/07/04 10:47:54;;;;;;;5.22;1.58;;;19.80;98.50;;;;;;5093323;28;20071;-69
2023/07/04 10:50:34;;;;;;;4.95;2.28;;;19.70;97.00;;;;;;5084008;28;20127;-69
2023/07/04 10:53:00;;;;;;;7.38;2.03;;;19.70;96.50;;;;;;5085013;28;20082;-69
2023/07/04 10:55:31;;;;;;;6.57;1.40;;;19.90;96.90;;;;;;5093438;28;20035;-69
2023/07/04 10:58:05;;;;;;;3.38;0.98;;;20.00;97.40;;;;;;5092727;28;20047;-69
2023/07/04 11:00:41;;;;;;;5.70;1.58;;;20.10;95.30;;;;;;5093106;28;20123;-69
2023/07/04 11:03:25;;;;;;;6.93;1.83;;;20.20;96.70;;;;;;5093314;28;20040;-69
2023/07/04 11:05:55;;;;;;;3.30;1.08;;;20.20;93.80;;;;;;5093331;28;20047;-69
2023/07/04 11:08:25;;;;;;;3.55;1.45;;;20.30;95.20;;;;;;5092550;28;20044;-69
2023/07/04 11:10:58;;;;;;;3.03;1.00;;;20.40;96.40;;;;;;5091858;28;20044;-68
2023/07/04 11:13:24;;;;;;;5.72;1.40;;;20.00;95.60;;;;;;5076970;28;20381;-68
2023/07/04 11:15:59;;;;;;;5.03;1.77;;;19.80;96.70;;;;;;5067515;28;20036;-68
2023/07/04 11:18:38;;;;;;;6.05;1.35;;;19.60;97.10;;;;;;5069510;28;20040;-68
2023/07/04 11:21:13;;;;;;;6.25;1.58;;;19.50;98.10;;;;;;5063604;28;20040;-69
2023/07/04 11:23:51;;;;;;;6.63;1.30;;;19.70;98.90;;;;;;5069342;28;20054;-69
2023/07/04 11:26:18;;;;;;;7.10;1.25;;;19.80;97.10;;;;;;5083655;28;20542;-68
2023/07/04 11:29:07;;;;;;;3.65;1.35;;;19.60;96.30;;;;;;5084116;28;20040;-68
2023/07/04 11:31:34;;;;;;;6.65;1.67;;;19.50;97.00;;;;;;5079389;28;20445;-71
2023/07/04 11:34:03;;;;;;;5.40;1.77;;;19.50;98.20;;;;;;5073144;28;20036;-69
2023/07/04 11:36:45;;;;;;;8.95;1.77;;;19.60;96.30;;;;;;5081484;28;20495;-69
2023/07/04 11:39:35;;;;;;;3.83;1.52;;;19.80;96.00;;;;;;5086978;28;20620;-69
2023/07/04 11:42:37;;;;;;;4.85;1.77;;;20.00;96.60;;;;;;5091650;28;20036;-69
2023/07/04 11:45:07;;;;;;;6.68;1.70;;;19.80;96.20;;;;;;5078139;28;20526;-69
2023/07/04 11:47:48;;;;;;;6.20;1.70;;;19.90;95.70;;;;;;5090027;28;20040;-69
2023/07/04 11:50:27;;;;;;;7.53;1.80;;;20.20;96.40;;;;;;5091278;28;20051;-69
2023/07/04 11:52:57;;;;;;;7.43;2.85;;;20.10;94.10;;;;;;5091954;28;20040;-69
2023/07/04 11:55:34;;;;;;;6.35;1.65;;;20.20;95.00;;;;;;5091802;28;20567;-69
2023/07/04 11:58:01;;;;;;;3.33;1.52;;;20.10;93.50;;;;;;5076550;28;20037;-69
2023/07/04 12:00:33;;;;;;;6.50;1.92;;;19.80;93.00;;;;;;5081289;28;20102;-69
2023/07/04 12:03:20;;;;;;;5.30;1.52;;;19.50;93.20;;;;;;5092120;28;20385;-69
2023/07/04 12:05:58;;;;;;;4.40;1.73;;;19.50;93.80;;;;;;5092115;28;20105;-69
2023/07/04 12:08:50;;;;;;;10.48;1.73;;;19.30;93.60;;;;;;5091360;28;20856;-68
2023/07/04 12:11:42;;;;;;;7.22;1.50;;;19.20;93.70;;;;;;5091829;28;20070;-69
2023/07/04 12:14:11;;;;;;;7.78;1.75;;;19.10;93.60;;;;;;5092019;28;20070;-69
2023/07/04 12:16:37;;;;;;;7.72;1.70;;;19.30;93.90;;;;;;5091936;28;20040;-68
2023/07/04 12:19:05;;;;;;;6.53;1.63;;;19.40;93.90;;;;;;5084458;28;20035;-69
2023/07/04 12:21:33;;;;;;;7.10;1.58;;;19.30;94.00;;;;;;5082697;28;20040;-69
2023/07/04 12:24:03;;;;;;;5.50;1.52;;;19.50;93.90;;;;;;5089172;28;20069;-69
2023/07/04 12:26:32;;;;;;;6.20;1.38;;;19.50;92.70;;;;;;5065226;28;20382;-70
2023/07/04 12:29:01;;;;;;;6.38;1.50;;;19.40;93.30;;;;;;5063847;28;20067;-70
2023/07/04 12:31:28;;;;;;;4.38;1.23;;;19.60;91.30;;;;;;5061028;28;20044;-71
2023/07/04 12:33:53;;;;;;;4.60;1.40;;;19.70;91.80;;;;;;5066383;28;20412;-70
2023/07/04 12:36:22;;;;;;;4.40;1.60;;;19.80;92.50;;;;;;5060176;28;20039;-70
2023/07/04 12:38:55;;;;;;;5.80;2.30;;;19.90;92.80;;;;;;5064232;28;20060;-71
2023/07/04 12:41:23;;;;;;;9.50;1.63;;;19.80;91.90;;;;;;5061008;28;20043;-71
2023/07/04 12:44:01;;;;;;;8.45;2.00;;;19.60;91.90;;;;;;5064769;28;20404;-71
2023/07/04 12:46:29;;;;;;;5.85;1.92;;;19.30;92.20;;;;;;5061390;28;20122;-71
2023/07/04 12:48:56;;;;;;;5.63;1.90;;;19.20;93.10;;;;;;5074294;28;20040;-71
2023/07/04 12:51:25;;;;;;;6.88;1.15;;;19.10;92.70;;;;;;5072639;28;20123;-71
2023/07/04 12:53:52;;;;;;;6.18;1.50;;;19.20;91.70;;;;;;5063330;28;20488;-71
2023/07/04 12:56:18;;;;;;;6.43;1.38;;;19.20;93.30;;;;;;5067120;28;20062;-71